Flight Track Log - Related Links

Times and Time Zones

All times are in EDT time to prevent confusion due to time zone crossing. See the ASQ5327 flight status page for this flight to view local times or setup timezone preferences in your user account.

Time Position Orientation Groundspeed Altitude Reporting Facility
EDT Latitude Longitude Course Direction KTS MPH feet Rate Location/Type
Tue 02:21:34 PM 44.8833 -93.3000 251° West 203 234 2,700  Level Minneapolis TRACON
Tue 02:22:28 PM 44.8667 -93.3667 251° West 264 304 5,300 2,978 Climbing Minneapolis TRACON
Tue 02:23:53 PM 44.7656 -93.3611 178° South 295 339 9,600 2,694 Climbing Minneapolis Center
Tue 02:24:55 PM 44.7192 -93.2567 122° Southeast 328 377 11,900 2,129 Climbing Minneapolis Center
Tue 02:25:57 PM 44.6597 -93.1228 122° Southeast 355 409 14,000 1,742 Climbing Minneapolis Center
Tue 02:26:59 PM 44.6031 -92.9933 122° Southeast 389 448 15,500 1,463 Climbing Minneapolis Center
Tue 02:28:00 PM 44.5406 -92.8531 122° Southeast 425 489 17,000 1,512 Climbing Minneapolis Center
Tue 02:29:02 PM 44.4753 -92.7072 122° Southeast 441 507 18,600 1,500 Climbing Minneapolis Center
Tue 02:30:04 PM 44.4064 -92.5564 123° Southeast 454 522 20,100 1,597 Climbing Minneapolis Center
Tue 02:31:06 PM 44.3225 -92.3658 122° Southeast 480 552 21,900 1,500 Climbing Minneapolis Center
Tue 02:32:08 PM 44.2511 -92.2075 122° Southeast 483 556 23,200 1,306 Climbing Minneapolis Center
Tue 02:33:10 PM 44.1792 -92.0475 122° Southeast 488 562 24,600 1,306 Climbing Minneapolis Center
Tue 02:34:12 PM 44.1058 -91.8867 122° Southeast 490 564 25,900 1,268 Climbing Minneapolis Center
Tue 02:35:13 PM 44.0308 -91.7217 122° Southeast 502 578 27,200 1,268 Climbing Minneapolis Center
Tue 02:36:15 PM 43.9550 -91.5592 123° Southeast 503 579 28,500 1,210 Climbing Minneapolis Center
Tue 02:37:17 PM 43.8703 -91.4092 128° Southeast 501 577 29,700 1,161 Climbing Minneapolis Center
Tue 02:38:19 PM 43.7556 -91.2458 134° Southeast 497 572 30,900 1,065 Climbing Minneapolis Center
Tue 02:39:21 PM 43.6578 -91.1100 135° Southeast 498 573 31,900 906 Climbing Minneapolis Center
Tue 02:40:05 PM 43.5997 -91.0325 136° Southeast 498 573 32,500 623 Climbing Chicago Center
Tue 02:41:07 PM 43.4833 -90.8706 135° Southeast 500 575 33,000 242 Climbing Chicago Center
Tue 02:42:09 PM 43.3856 -90.7344 135° Southeast 501 577 33,000  Level Chicago Center
Tue 02:43:11 PM 43.2850 -90.5978 135° Southeast 507 583 33,000  Level Chicago Center
Tue 02:44:14 PM 43.1850 -90.4592 135° Southeast 512 589 33,000  Level Chicago Center
Tue 02:45:16 PM 43.0831 -90.3217 135° Southeast 516 594 33,000  Level Chicago Center
Tue 02:46:18 PM 42.9633 -90.1583 135° Southeast 512 589 33,000  Level Chicago Center
Tue 02:47:20 PM 42.8617 -90.0233 136° Southeast 512 589 33,000  Level Chicago Center
Tue 02:48:22 PM 42.7603 -89.8889 136° Southeast 512 589 33,000  Level Chicago Center
Tue 02:49:24 PM 42.6606 -89.7561 136° Southeast 508 585 33,000  Level Chicago Center
Tue 02:50:26 PM 42.5600 -89.6253 136° Southeast 505 581 33,000  Level Chicago Center
Tue 02:51:28 PM 42.4397 -89.4686 136° Southeast 503 579 33,000  Level Chicago Center
Tue 02:52:30 PM 42.3408 -89.3375 136° Southeast 501 577 33,000  Level Chicago Center
Tue 02:53:32 PM 42.2378 -89.2039 136° Southeast 501 577 33,000  Level Chicago Center
Tue 02:54:35 PM 42.1372 -89.0744 136° Southeast 500 575 33,000  Level Chicago Center
Tue 02:55:37 PM 42.0383 -88.9447 136° Southeast 500 575 33,000  Level Chicago Center
Tue 02:56:39 PM 41.9375 -88.8167 137° Southeast 501 577 33,000  Level Chicago Center
Tue 02:57:41 PM 41.8178 -88.6619 136° Southeast 502 578 33,000  Level Chicago Center
Tue 02:58:43 PM 41.7181 -88.5353 137° Southeast 498 573 33,000 -581 Level Chicago Center
Tue 02:59:45 PM 41.6172 -88.4086 137° Southeast 500 575 31,800 -1,306 Descending Chicago Center
Tue 03:00:47 PM 41.5156 -88.2797 136° Southeast 507 583 30,300 -1,355 Descending Chicago Center
Tue 03:01:49 PM 41.4036 -88.1333 136° Southeast 507 583 29,000 -629 Descending Chicago Center
Tue 03:02:51 PM 41.3028 -88.0078 137° Southeast 503 579 29,000  Level Chicago Center
Tue 03:03:53 PM 41.2081 -87.8853 136° Southeast 489 563 29,000  Level Chicago Center
Tue 03:04:56 PM 41.1133 -87.7653 136° Southeast 478 550 29,000  Level Chicago Center
Tue 03:05:58 PM 40.9994 -87.6211 136° Southeast 475 547 29,000  Level Chicago Center
Tue 03:07:00 PM 40.9056 -87.5022 136° Southeast 470 541 29,000  Level Chicago Center
Tue 03:08:02 PM 40.8106 -87.3872 137° Southeast 467 537 29,000 -387 Level Chicago Center
Tue 03:09:04 PM 40.7181 -87.2700 136° Southeast 465 535 28,200 -871 Descending Chicago Center
Tue 03:10:06 PM 40.6211 -87.1553 138° Southeast 470 541 27,200 -1,065 Descending Chicago Center
Tue 03:11:08 PM 40.4956 -87.0350 144° Southeast 477 549 26,000 -1,065 Descending Chicago Center
Tue 03:12:10 PM 40.3897 -86.9308 143° Southeast 478 550 25,000 -968 Descending Chicago Center
Tue 03:13:12 PM 40.2842 -86.8261 143° Southeast 477 549 24,000 -677 Descending Chicago Center
Tue 03:14:14 PM 40.1772 -86.7211 143° Southeast 482 555 23,600 -504 Descending Chicago Center
Tue 03:15:11 PM 40.0692 -86.6156 143° Southeast 481 554 23,000 -303 Descending Indianapolis Center
Tue 03:16:13 PM 39.9639 -86.5119 143° Southeast 477 549 23,000 -48 Level Indianapolis Center
Tue 03:17:15 PM 39.8561 -86.4078 143° Southeast 481 554 22,900 -1,306 Descending Indianapolis Center
Tue 03:18:17 PM 39.7786 -86.2617 125° Southeast 475 547 20,300 -2,419 Descending Indianapolis Center
Tue 03:19:19 PM 39.7272 -86.1039 113° Southeast 471 542 17,900 -2,177 Descending Indianapolis Center
Tue 03:20:21 PM 39.6781 -85.9586 114° Southeast 451 519 15,800 -2,032 Descending Indianapolis Center
Tue 03:21:23 PM 39.6217 -85.7914 114° Southeast 435 501 13,700 -1,597 Descending Indianapolis Center
Tue 03:22:25 PM 39.5775 -85.6600 114° Southeast 416 479 12,500 -1,210 Descending Indianapolis Center
Tue 03:23:27 PM 39.5319 -85.5264 114° Southeast 408 470 11,200 -726 Descending Indianapolis Center
Tue 03:24:29 PM 39.4783 -85.4147 122° Southeast 376 433 11,000 -387 Descending Indianapolis Center
Tue 03:25:31 PM 39.4450 -85.3031 111° Southeast 343 395 10,400 -1,016 Descending Indianapolis Center
Tue 03:26:33 PM 39.4211 -85.1967 106° East 317 365 8,900 -1,500 Descending Indianapolis Center
Tue 03:27:35 PM 39.3947 -85.0769 106° East 296 341 7,300 -1,548 Descending Indianapolis Center
Tue 03:28:37 PM 39.3733 -84.9781 106° East 291 335 5,700 -1,113 Descending Indianapolis Center
Tue 03:29:39 PM 39.3433 -84.8878 113° Southeast 282 325 5,000 -435 Descending Indianapolis Center
Tue 03:30:41 PM 39.3006 -84.8092 125° Southeast 273 314 4,800 -532 Descending Indianapolis Center
Tue 03:31:43 PM 39.2425 -84.7478 141° Southeast 267 307 3,900 -847 Descending Indianapolis Center
Tue 03:33:38 PM 39.1333 -84.6667 150° Southeast 186 214 2,300 -823 Descending Cincinnati TRACON
Tue 03:34:38 PM 39.1000 -84.6667 180° South 150 173 1,500 -800 Descending Cincinnati TRACON
Tue 03:36:00 PM 39.0488 -84.6678 180° South  Level Estimated
Tue 03:43:00 PM 39.0488 -84.6678 North  Level Estimated

Login

Don't have an account? Register now (free) for customized features, flight alerts, and more!